Aviation Digital Data Service (ADDS)

Output produced by METARs form (0928 UTC 25 May 2015)
found at http://aviationweather.gov/adds/metars/
 
KPVD 250902Z 2509/2606 20006KT P6SM SCT100 BKN200 
     FM251600 20010KT P6SM BKN100 
     FM252100 19011G22KT P6SM BKN120 
     FM260100 21011KT P6SM SCT120 BKN250